Time;durP1;ratioP1;P1;durP2;ratioP2;P2;SDS_P1;SDS_P2;PMS_P1;PMS_P2;Temp;Humidity;BMP_temperature;BMP_pressure;BME280_temperature;BME280_humidity;BME280_pressure;Samples;Min_cycle;Max_cycle;Signal;HPM_P1;HPM_P2
2022/04/17 00:01:44;;;;;;;3.67;2.40;;;5.80;90.50;;;;;;5034619;28;20184;-72
2022/04/17 00:04:13;;;;;;;2.10;2.00;;;5.70;90.80;;;;;;5033826;28;20436;-72
2022/04/17 00:06:38;;;;;;;2.45;2.28;;;5.70;91.20;;;;;;5034591;28;20190;-71
2022/04/17 00:09:04;;;;;;;2.37;2.13;;;5.60;91.40;;;;;;5034672;28;20174;-72
2022/04/17 00:11:30;;;;;;;2.20;2.00;;;5.60;91.40;;;;;;5034457;28;20214;-71
2022/04/17 00:13:55;;;;;;;4.13;3.13;;;5.60;91.50;;;;;;5035293;28;20244;-70
2022/04/17 00:16:21;;;;;;;2.60;2.40;;;5.50;91.40;;;;;;5035789;28;20186;-70
2022/04/17 00:18:47;;;;;;;3.23;2.93;;;5.50;91.50;;;;;;5034496;28;20252;-72
2022/04/17 00:21:12;;;;;;;4.20;3.33;;;5.40;91.50;;;;;;5034875;28;20401;-70
2022/04/17 00:23:38;;;;;;;2.50;2.40;;;5.40;91.90;;;;;;5034269;28;20182;-71
2022/04/17 00:26:04;;;;;;;4.27;3.37;;;5.30;92.10;;;;;;5033891;28;20205;-71
2022/04/17 00:28:30;;;;;;;5.35;2.08;;;5.30;92.30;;;;;;5034291;28;20248;-71
2022/04/17 00:30:55;;;;;;;2.73;2.53;;;5.20;92.50;;;;;;5033988;28;20225;-71
2022/04/17 00:33:21;;;;;;;3.90;2.60;;;5.20;92.60;;;;;;5033625;28;20178;-71
2022/04/17 00:35:47;;;;;;;2.10;1.90;;;5.20;92.50;;;;;;5033805;28;20186;-70
2022/04/17 00:38:12;;;;;;;3.03;2.27;;;5.20;92.40;;;;;;5033936;28;20166;-71
2022/04/17 00:40:39;;;;;;;4.57;3.43;;;5.20;92.50;;;;;;5033478;28;20170;-70
2022/04/17 00:43:31;;;;;;;2.50;1.95;;;5.20;92.50;;;;;;5033545;28;20407;-73
2022/04/17 00:45:58;;;;;;;5.10;2.75;;;5.20;92.50;;;;;;5033794;28;20557;-72
2022/04/17 00:48:24;;;;;;;2.20;2.00;;;5.20;92.50;;;;;;5033762;28;20663;-72
2022/04/17 00:50:51;;;;;;;2.58;2.15;;;5.10;92.80;;;;;;5033556;28;20202;-72
2022/04/17 00:53:18;;;;;;;3.95;3.55;;;5.00;92.90;;;;;;5031924;28;20173;-72
2022/04/17 00:55:46;;;;;;;3.17;2.38;;;5.10;93.00;;;;;;5033174;28;20212;-72
2022/04/17 00:58:14;;;;;;;4.97;2.08;;;5.00;93.10;;;;;;5033451;28;20219;-71
2022/04/17 01:00:44;;;;;;;1.88;1.77;;;5.00;93.10;;;;;;5033637;28;20174;-72
2022/04/17 01:03:13;;;;;;;2.25;1.88;;;5.00;93.10;;;;;;5033061;28;20182;-72
2022/04/17 01:05:42;;;;;;;2.75;2.55;;;5.00;93.10;;;;;;5032258;28;20198;-71
2022/04/17 01:08:11;;;;;;;2.83;2.60;;;5.00;93.50;;;;;;5033366;28;20162;-72
2022/04/17 01:10:37;;;;;;;1.92;1.85;;;4.90;93.50;;;;;;5033088;28;20197;-72
2022/04/17 01:13:04;;;;;;;3.03;2.83;;;4.80;93.40;;;;;;5033357;28;20300;-72
2022/04/17 01:15:31;;;;;;;2.40;2.30;;;4.80;93.40;;;;;;5032736;28;20225;-72
2022/04/17 01:17:56;;;;;;;1.77;1.67;;;4.80;93.40;;;;;;5033256;28;20572;-70
2022/04/17 01:20:23;;;;;;;3.20;2.90;;;4.70;93.70;;;;;;5032119;28;20202;-71
2022/04/17 01:22:49;;;;;;;2.63;2.42;;;4.70;93.70;;;;;;5033221;28;20533;-72
2022/04/17 01:28:01;;;;;;;2.25;1.70;;;4.60;94.00;;;;;;5033176;28;20714;-72
2022/04/17 01:30:27;;;;;;;1.42;1.33;;;4.50;94.30;;;;;;5033253;28;20660;-71
2022/04/17 01:32:53;;;;;;;2.63;2.30;;;4.50;94.50;;;;;;5033199;28;20181;-72
2022/04/17 01:35:19;;;;;;;1.73;1.63;;;4.40;94.50;;;;;;5032759;28;20520;-72
2022/04/17 01:37:48;;;;;;;1.60;1.38;;;4.40;94.50;;;;;;5033097;28;20563;-71
2022/04/17 01:40:14;;;;;;;3.58;1.92;;;4.40;94.40;;;;;;5032658;28;20185;-72
2022/04/17 01:42:40;;;;;;;2.27;1.83;;;4.40;94.40;;;;;;5033604;28;20174;-71
2022/04/17 01:45:06;;;;;;;1.80;1.70;;;4.40;94.30;;;;;;5032680;28;20472;-71
2022/04/17 01:47:32;;;;;;;2.38;1.50;;;4.40;94.30;;;;;;5033329;28;20176;-71
2022/04/17 01:49:58;;;;;;;9.90;5.10;;;4.30;94.30;;;;;;5033309;28;20531;-71
2022/04/17 01:52:24;;;;;;;2.47;1.95;;;4.30;94.40;;;;;;5035447;28;20526;-72
2022/04/17 01:54:50;;;;;;;2.17;1.98;;;4.30;94.60;;;;;;5032451;28;20194;-71
2022/04/17 01:57:16;;;;;;;4.00;2.57;;;4.30;94.60;;;;;;5033142;28;20697;-71
2022/04/17 01:59:41;;;;;;;1.73;1.60;;;4.20;94.80;;;;;;5031905;28;20174;-71
2022/04/17 02:02:07;;;;;;;1.53;1.43;;;4.20;94.70;;;;;;5032724;28;20252;-71
2022/04/17 02:04:35;;;;;;;2.50;2.30;;;4.20;94.60;;;;;;5032425;28;20196;-72
2022/04/17 02:07:05;;;;;;;1.90;1.80;;;4.20;95.00;;;;;;5032977;28;20170;-72
2022/04/17 02:09:31;;;;;;;3.13;2.00;;;4.20;95.50;;;;;;5032875;28;20575;-71
2022/04/17 02:11:56;;;;;;;2.17;2.08;;;4.20;95.50;;;;;;5032969;28;20292;-72
2022/04/17 02:14:23;;;;;;;1.67;1.57;;;4.20;95.70;;;;;;5032513;28;20206;-72
2022/04/17 02:16:48;;;;;;;1.95;1.85;;;4.20;95.60;;;;;;5032702;28;20197;-73
2022/04/17 02:19:14;;;;;;;2.17;2.07;;;4.20;95.60;;;;;;5032763;28;20171;-73
2022/04/17 02:21:39;;;;;;;1.70;1.60;;;4.10;95.90;;;;;;5032884;28;20170;-72
2022/04/17 02:24:06;;;;;;;2.30;1.57;;;4.10;95.90;;;;;;5032506;28;20256;-72
2022/04/17 02:26:32;;;;;;;2.25;2.15;;;4.10;95.90;;;;;;5032843;28;20201;-72
2022/04/17 02:28:59;;;;;;;2.08;1.98;;;4.10;96.00;;;;;;5036544;28;20174;-73
2022/04/17 02:31:26;;;;;;;6.47;2.28;;;4.10;96.00;;;;;;5036650;28;20190;-72
2022/04/17 02:33:53;;;;;;;1.85;1.75;;;4.10;96.10;;;;;;5034885;28;20661;-72
2022/04/17 02:36:19;;;;;;;1.63;1.52;;;4.10;96.20;;;;;;5034938;28;20592;-72
2022/04/17 02:38:45;;;;;;;1.92;1.75;;;4.10;96.40;;;;;;5036181;28;20174;-72
2022/04/17 02:41:11;;;;;;;2.50;2.30;;;4.00;96.10;;;;;;5036210;28;20172;-72
2022/04/17 02:43:36;;;;;;;2.67;2.53;;;4.00;96.30;;;;;;5036117;28;20855;-77
2022/04/17 02:46:03;;;;;;;2.03;1.92;;;3.90;96.30;;;;;;5035944;28;20218;-72
2022/04/17 02:48:28;;;;;;;1.90;1.73;;;3.90;96.50;;;;;;5036089;28;20214;-71
2022/04/17 02:50:55;;;;;;;2.30;1.90;;;3.80;96.90;;;;;;5036447;28;20599;-72
2022/04/17 02:53:21;;;;;;;2.22;2.03;;;3.80;97.10;;;;;;5035741;28;20166;-72
2022/04/17 02:55:47;;;;;;;6.85;2.13;;;3.90;97.10;;;;;;5034581;28;20664;-72
2022/04/17 02:58:12;;;;;;;2.30;2.10;;;3.90;97.00;;;;;;5035726;28;20294;-71
2022/04/17 03:05:36;;;;;;;2.10;2.00;;;4.00;96.70;;;;;;5036115;28;20174;-73
2022/04/17 03:06:10;;;;;;;2.38;2.17;;;4.10;96.40;;;;;;5050005;28;20201;-72
2022/04/17 03:08:41;;;;;;;3.45;1.88;;;4.00;96.40;;;;;;5042119;28;20632;-72
2022/04/17 03:11:07;;;;;;;9.93;2.20;;;4.00;96.50;;;;;;5046706;28;20208;-73
2022/04/17 03:13:33;;;;;;;1.45;1.40;;;3.90;96.90;;;;;;5043266;28;20182;-72
2022/04/17 03:15:59;;;;;;;2.43;2.23;;;3.90;96.80;;;;;;5020243;28;20194;-73
2022/04/17 03:18:25;;;;;;;3.57;2.67;;;3.80;96.90;;;;;;5040169;28;20412;-72
2022/04/17 03:20:51;;;;;;;2.13;2.03;;;3.80;97.20;;;;;;5038632;28;20409;-72
2022/04/17 03:23:17;;;;;;;1.65;1.65;;;3.70;97.70;;;;;;5035188;28;20161;-72
2022/04/17 03:25:43;;;;;;;1.77;1.67;;;3.70;97.90;;;;;;5033781;28;20706;-72
2022/04/17 03:28:10;;;;;;;2.45;2.25;;;3.70;98.00;;;;;;5035787;28;20181;-71
2022/04/17 03:30:35;;;;;;;2.25;2.15;;;3.70;98.10;;;;;;5035549;28;20240;-72
2022/04/17 03:33:02;;;;;;;2.27;1.80;;;3.60;98.20;;;;;;5035116;28;20231;-72
2022/04/17 03:35:31;;;;;;;2.20;2.00;;;3.60;98.60;;;;;;5035081;28;20547;-72
2022/04/17 03:38:00;;;;;;;2.03;1.90;;;3.60;98.90;;;;;;5034718;28;20168;-71
2022/04/17 03:40:26;;;;;;;1.63;1.55;;;3.50;99.20;;;;;;5050402;28;20186;-71
2022/04/17 03:42:52;;;;;;;2.40;2.20;;;3.50;99.30;;;;;;5035459;28;20648;-72
2022/04/17 03:45:17;;;;;;;2.13;1.87;;;3.40;99.90;;;;;;5035158;28;20427;-72
2022/04/17 03:47:43;;;;;;;3.20;1.87;;;3.40;99.90;;;;;;5034132;28;20174;-72
2022/04/17 03:50:10;;;;;;;3.17;2.83;;;3.40;99.90;;;;;;5035131;28;20166;-72
2022/04/17 03:52:43;;;;;;;2.42;1.60;;;3.40;99.90;;;;;;5034909;28;20198;-72
2022/04/17 03:55:09;;;;;;;2.40;2.30;;;3.40;99.90;;;;;;5034501;28;20553;-72
2022/04/17 03:57:34;;;;;;;1.77;1.67;;;3.40;99.90;;;;;;5034814;28;20169;-72
2022/04/17 04:00:01;;;;;;;2.73;2.07;;;3.40;99.60;;;;;;5034844;28;20209;-72
2022/04/17 04:02:29;;;;;;;2.85;2.65;;;3.40;99.50;;;;;;5034715;28;20170;-73
2022/04/17 04:04:55;;;;;;;1.88;1.77;;;3.40;99.70;;;;;;5032973;28;20198;-72
2022/04/17 04:07:20;;;;;;;2.70;2.47;;;3.40;99.90;;;;;;5034615;28;20297;-72
2022/04/17 04:09:46;;;;;;;2.10;1.90;;;3.40;99.80;;;;;;5034580;28;20636;-72
2022/04/17 04:12:12;;;;;;;1.60;1.50;;;3.40;99.80;;;;;;5034523;28;20198;-73
2022/04/17 04:14:38;;;;;;;2.37;2.10;;;3.40;99.80;;;;;;5034071;28;20170;-72
2022/04/17 04:17:04;;;;;;;2.00;1.90;;;3.40;99.90;;;;;;5034435;28;20219;-72
2022/04/17 04:19:30;;;;;;;1.63;1.53;;;3.50;99.50;;;;;;5034673;28;20619;-72
2022/04/17 04:21:55;;;;;;;1.53;1.47;;;3.60;99.20;;;;;;5034350;28;20894;-72
2022/04/17 04:24:24;;;;;;;2.40;2.20;;;3.60;99.00;;;;;;5033779;28;20178;-73
2022/04/17 04:28:33;;;;;;;2.28;2.00;;;3.60;98.80;;;;;;5034198;28;20549;-72
2022/04/17 04:29:37;;;;;;;2.20;2.10;;;3.60;98.60;;;;;;5034148;28;20532;-72
2022/04/17 04:32:03;;;;;;;2.00;1.85;;;3.60;98.80;;;;;;5034270;28;20204;-72
2022/04/17 04:34:29;;;;;;;3.65;3.38;;;3.50;99.30;;;;;;5033527;28;20166;-72
2022/04/17 04:36:55;;;;;;;3.72;2.33;;;3.50;99.50;;;;;;5034005;28;20162;-72
2022/04/17 04:39:21;;;;;;;2.63;2.53;;;3.40;99.90;;;;;;5033980;28;20170;-72
2022/04/17 04:41:46;;;;;;;2.17;2.03;;;3.40;99.90;;;;;;5033760;28;20499;-73
2022/04/17 04:44:12;;;;;;;2.33;2.17;;;3.40;99.90;;;;;;5033561;28;20228;-73
2022/04/17 04:46:38;;;;;;;2.57;2.20;;;3.40;99.90;;;;;;5033653;28;20212;-72
2022/04/17 04:51:48;;;;;;;2.28;2.17;;;3.60;99.90;;;;;;5033646;28;20205;-73
2022/04/17 04:54:14;;;;;;;1.90;1.80;;;3.80;99.90;;;;;;5033542;28;20178;-73
2022/04/17 04:56:40;;;;;;;3.80;3.40;;;4.00;99.90;;;;;;5033658;28;20186;-73
2022/04/17 04:59:05;;;;;;;2.97;2.70;;;4.20;99.90;;;;;;5033806;28;20177;-72
2022/04/17 05:01:31;;;;;;;2.83;2.57;;;4.50;99.90;;;;;;5033341;28;20209;-73
2022/04/17 05:03:56;;;;;;;2.17;1.97;;;4.80;99.90;;;;;;5033104;28;20182;-72
2022/04/17 05:06:22;;;;;;;2.20;1.87;;;5.00;99.90;;;;;;5033500;28;20280;-73
2022/04/17 05:08:48;;;;;;;3.03;2.63;;;5.20;99.90;;;;;;5033498;28;20170;-72
2022/04/17 05:11:14;;;;;;;3.33;3.10;;;5.30;99.90;;;;;;5033344;28;20290;-72
2022/04/17 05:13:40;;;;;;;4.17;2.47;;;5.40;99.90;;;;;;5033235;28;20170;-72
2022/04/17 05:16:06;;;;;;;3.55;2.30;;;5.60;99.60;;;;;;5033151;28;20536;-72
2022/04/17 05:18:32;;;;;;;8.13;2.45;;;5.90;98.70;;;;;;5033428;28;20248;-73
2022/04/17 05:20:58;;;;;;;2.93;2.73;;;6.30;97.80;;;;;;5029932;28;20565;-73
2022/04/17 05:23:29;;;;;;;4.70;2.63;;;6.80;97.30;;;;;;5028047;28;20424;-73
2022/04/17 05:25:56;;;;;;;2.97;2.75;;;7.20;96.50;;;;;;5019513;28;20865;-73
2022/04/17 05:28:23;;;;;;;2.13;2.03;;;7.40;95.30;;;;;;5032654;28;20177;-73
2022/04/17 05:30:49;;;;;;;2.83;2.63;;;7.50;94.60;;;;;;5032510;28;20229;-73
2022/04/17 05:33:19;;;;;;;2.42;2.22;;;7.70;94.40;;;;;;5020822;28;20307;-75
2022/04/17 05:35:44;;;;;;;2.00;1.85;;;8.00;94.20;;;;;;5032459;28;20182;-74
2022/04/17 05:38:13;;;;;;;2.03;1.93;;;8.30;93.30;;;;;;5038945;28;20303;-74
2022/04/17 05:40:41;;;;;;;1.88;1.77;;;8.60;92.00;;;;;;5032866;28;20930;-74
2022/04/17 05:43:08;;;;;;;1.80;1.67;;;8.90;91.10;;;;;;5032661;28;20170;-74
2022/04/17 05:45:34;;;;;;;2.50;2.20;;;9.10;89.70;;;;;;5032725;28;20188;-73
2022/04/17 05:48:00;;;;;;;3.80;2.25;;;9.00;88.80;;;;;;5032226;28;20174;-73
2022/04/17 05:50:27;;;;;;;2.25;2.15;;;8.60;89.60;;;;;;5033098;28;20201;-73
2022/04/17 05:52:53;;;;;;;3.40;2.20;;;8.40;90.50;;;;;;5031596;28;20628;-73
2022/04/17 05:55:19;;;;;;;2.35;2.15;;;8.40;90.30;;;;;;5034137;28;20202;-72
2022/04/17 05:57:45;;;;;;;2.70;2.50;;;8.50;90.50;;;;;;5053015;28;20166;-73
2022/04/17 06:00:11;;;;;;;2.20;2.10;;;8.80;90.20;;;;;;5053048;28;20624;-70
2022/04/17 06:02:38;;;;;;;2.25;2.05;;;9.30;89.00;;;;;;5055073;28;20165;-74
2022/04/17 06:05:05;;;;;;;2.67;2.47;;;9.70;86.90;;;;;;5054993;28;20255;-70
2022/04/17 06:07:31;;;;;;;3.70;2.05;;;9.80;86.10;;;;;;5040075;28;20200;-76
2022/04/17 06:10:03;;;;;;;2.42;2.28;;;10.00;85.40;;;;;;5036240;28;20244;-76
2022/04/17 06:12:29;;;;;;;2.60;2.40;;;10.10;82.80;;;;;;5038088;28;20203;-69
2022/04/17 06:14:54;;;;;;;2.77;2.20;;;10.20;81.00;;;;;;5036231;28;20179;-69
2022/04/17 06:17:20;;;;;;;1.87;1.77;;;10.20;80.80;;;;;;5036908;28;20174;-69
2022/04/17 06:19:46;;;;;;;2.60;2.13;;;10.10;81.10;;;;;;5036778;28;20177;-68
2022/04/17 06:22:12;;;;;;;2.47;2.37;;;10.20;79.60;;;;;;5036590;28;20412;-75
2022/04/17 06:24:38;;;;;;;2.13;1.93;;;10.40;79.40;;;;;;5035924;28;20172;-74
2022/04/17 06:27:04;;;;;;;2.53;2.20;;;10.50;78.80;;;;;;5036079;28;20172;-74
2022/04/17 06:29:31;;;;;;;3.05;2.78;;;10.70;79.10;;;;;;5036400;28;20644;-75
2022/04/17 06:31:57;;;;;;;2.78;2.55;;;11.10;78.70;;;;;;5035578;28;20233;-74
2022/04/17 06:34:22;;;;;;;2.87;2.67;;;11.40;77.60;;;;;;5035964;28;20277;-74
2022/04/17 06:36:48;;;;;;;2.23;2.13;;;11.70;77.20;;;;;;5036156;28;20199;-74
2022/04/17 06:39:14;;;;;;;2.80;2.60;;;11.70;76.60;;;;;;5035919;28;20251;-74
2022/04/17 06:41:39;;;;;;;3.13;2.83;;;11.60;76.40;;;;;;5036139;28;20255;-74
2022/04/17 06:44:05;;;;;;;2.13;2.03;;;11.50;76.10;;;;;;5039100;28;20254;-74
2022/04/17 06:46:32;;;;;;;3.30;3.00;;;11.30;75.70;;;;;;5048427;28;20199;-74
2022/04/17 06:48:58;;;;;;;2.60;2.40;;;11.30;77.30;;;;;;5037922;28;20208;-73
2022/04/17 06:51:25;;;;;;;2.13;2.03;;;11.30;76.20;;;;;;5035466;28;20495;-74
2022/04/17 06:53:52;;;;;;;2.60;2.33;;;11.40;75.50;;;;;;5035181;28;20510;-66
2022/04/17 06:56:21;;;;;;;2.87;2.67;;;11.40;76.50;;;;;;5035558;28;20442;-70
2022/04/17 06:58:47;;;;;;;2.50;2.30;;;11.60;76.90;;;;;;5039151;28;20418;-74
2022/04/17 07:01:17;;;;;;;2.20;2.10;;;12.00;75.40;;;;;;5039006;28;20467;-67
2022/04/17 07:03:44;;;;;;;2.20;2.00;;;12.60;75.00;;;;;;5034810;28;20573;-66
2022/04/17 07:06:10;;;;;;;2.97;2.67;;;13.20;72.00;;;;;;5035118;28;20490;-73
2022/04/17 07:08:36;;;;;;;3.07;2.87;;;13.60;72.30;;;;;;5035430;28;20414;-72
2022/04/17 07:11:02;;;;;;;2.47;2.27;;;14.10;71.60;;;;;;5035053;28;20462;-74
2022/04/17 07:13:28;;;;;;;2.00;1.77;;;14.40;68.80;;;;;;5033683;28;20814;-74
2022/04/17 07:15:54;;;;;;;2.00;1.90;;;14.70;66.90;;;;;;5034941;28;20443;-75
2022/04/17 07:18:20;;;;;;;2.27;2.17;;;15.10;64.50;;;;;;5033757;28;20177;-74
2022/04/17 07:20:45;;;;;;;2.87;1.83;;;15.70;63.10;;;;;;5035508;28;20164;-72
2022/04/17 07:23:11;;;;;;;4.20;2.37;;;16.10;62.40;;;;;;5034904;28;20424;-74
2022/04/17 07:25:37;;;;;;;2.10;2.00;;;16.30;60.60;;;;;;5035177;28;20259;-71
2022/04/17 07:28:03;;;;;;;1.90;1.80;;;16.60;61.10;;;;;;5035251;28;20181;-75
2022/04/17 07:30:31;;;;;;;2.97;1.70;;;16.90;59.70;;;;;;5035027;28;20166;-74
2022/04/17 07:32:59;;;;;;;1.80;1.50;;;16.90;57.70;;;;;;5034488;28;20444;-73
2022/04/17 07:35:26;;;;;;;2.50;1.90;;;16.90;56.60;;;;;;5045165;28;20488;-75
2022/04/17 07:37:53;;;;;;;1.40;1.40;;;16.90;56.20;;;;;;5034621;28;20757;-74
2022/04/17 07:40:21;;;;;;;1.73;1.63;;;16.70;56.40;;;;;;5035223;28;20410;-76
2022/04/17 07:42:50;;;;;;;2.17;1.63;;;16.80;56.20;;;;;;5033654;28;20396;-75
2022/04/17 07:45:17;;;;;;;1.80;1.70;;;16.80;55.80;;;;;;5034111;28;20416;-75
2022/04/17 07:47:44;;;;;;;2.03;1.93;;;16.90;55.70;;;;;;5034136;28;20855;-74
2022/04/17 07:50:12;;;;;;;1.27;1.20;;;17.30;55.20;;;;;;5034112;28;20399;-75
2022/04/17 07:52:39;;;;;;;2.30;2.10;;;17.50;54.60;;;;;;5033266;28;20465;-76
2022/04/17 07:55:06;;;;;;;2.00;1.53;;;18.00;54.00;;;;;;5032875;28;20398;-75
2022/04/17 08:00:21;;;;;;;1.83;1.73;;;18.90;52.20;;;;;;5034172;28;20787;-74
2022/04/17 08:02:53;;;;;;;1.80;1.70;;;19.10;52.50;;;;;;5033718;28;20428;-75
2022/04/17 08:05:21;;;;;;;1.57;1.47;;;19.30;52.10;;;;;;5033994;28;20413;-74
2022/04/17 08:07:47;;;;;;;1.70;1.60;;;19.60;52.00;;;;;;5032388;28;20859;-73
2022/04/17 08:10:12;;;;;;;1.60;1.50;;;20.20;51.10;;;;;;5032302;28;20496;-74
2022/04/17 08:12:39;;;;;;;1.80;1.70;;;20.10;50.20;;;;;;5032357;28;20194;-74
2022/04/17 08:15:06;;;;;;;1.70;1.60;;;20.20;50.60;;;;;;5030576;28;20664;-74
2022/04/17 08:17:32;;;;;;;2.03;1.93;;;20.60;50.50;;;;;;5031756;28;20779;-73
2022/04/17 08:19:58;;;;;;;2.50;2.30;;;21.00;49.30;;;;;;5031848;28;20416;-75
2022/04/17 08:22:23;;;;;;;2.30;2.20;;;21.10;49.10;;;;;;5033221;28;20686;-74
2022/04/17 08:24:49;;;;;;;1.77;1.67;;;21.60;48.20;;;;;;5033555;28;20722;-75
2022/04/17 08:27:14;;;;;;;1.67;1.57;;;21.50;47.40;;;;;;5034876;28;20171;-74
2022/04/17 08:29:40;;;;;;;1.57;1.50;;;21.40;47.90;;;;;;5034041;28;20175;-74
2022/04/17 08:32:06;;;;;;;1.67;1.57;;;21.60;48.10;;;;;;5033778;28;20232;-75
2022/04/17 08:34:31;;;;;;;1.47;1.47;;;22.10;47.60;;;;;;5065293;28;20173;-76
2022/04/17 08:36:57;;;;;;;2.30;2.10;;;21.90;46.60;;;;;;5033914;28;20169;-74
2022/04/17 08:39:23;;;;;;;1.77;1.67;;;21.90;46.80;;;;;;5034049;28;20185;-74
2022/04/17 08:41:50;;;;;;;1.77;1.67;;;22.00;46.30;;;;;;5033268;28;20473;-74
2022/04/17 08:44:16;;;;;;;1.60;1.53;;;22.10;46.30;;;;;;5033068;28;20200;-75
2022/04/17 08:46:42;;;;;;;1.70;1.50;;;22.10;45.10;;;;;;5033795;28;20429;-74
2022/04/17 08:49:11;;;;;;;1.80;1.70;;;22.20;44.90;;;;;;5033760;28;20895;-73
2022/04/17 08:51:38;;;;;;;1.73;1.63;;;22.10;45.00;;;;;;5033315;28;20521;-74
2022/04/17 08:54:06;;;;;;;1.93;1.73;;;21.90;44.70;;;;;;5033155;28;20472;-74
2022/04/17 08:56:33;;;;;;;1.43;1.43;;;21.90;44.80;;;;;;5033496;28;20421;-76
2022/04/17 08:58:59;;;;;;;1.40;1.30;;;21.90;44.30;;;;;;5032346;28;20884;-76
2022/04/17 09:01:26;;;;;;;1.40;1.30;;;21.80;43.30;;;;;;5033121;28;20393;-75
2022/04/17 09:03:52;;;;;;;1.30;1.20;;;21.70;43.30;;;;;;5032906;28;20947;-76
2022/04/17 09:06:19;;;;;;;1.40;1.30;;;21.50;44.30;;;;;;5033099;28;20423;-73
2022/04/17 09:09:04;;;;;;;1.83;1.70;;;21.50;44.40;;;;;;5033581;28;20424;-74
2022/04/17 09:11:32;;;;;;;1.90;1.67;;;22.00;43.80;;;;;;5032233;28;20431;-75
2022/04/17 09:14:01;;;;;;;1.40;1.30;;;22.50;43.60;;;;;;5036638;28;21935;-72
2022/04/17 09:16:33;;;;;;;2.07;1.67;;;23.00;43.30;;;;;;5025796;28;20420;-75
2022/04/17 09:19:10;;;;;;;1.43;1.33;;;23.40;43.00;;;;;;5015460;28;20381;-76
2022/04/17 09:21:35;;;;;;;1.87;1.77;;;23.70;41.10;;;;;;5013906;28;20389;-72
2022/04/17 09:24:22;;;;;;;1.10;1.00;;;23.50;40.60;;;;;;5011997;28;20401;-75
2022/04/17 09:26:56;;;;;;;1.30;1.30;;;23.50;40.30;;;;;;5013113;28;20309;-76
2022/04/17 09:29:27;;;;;;;1.60;1.50;;;23.40;40.10;;;;;;5021247;28;20775;-76
2022/04/17 09:32:02;;;;;;;1.17;1.17;;;23.30;40.00;;;;;;5033188;28;20456;-73
2022/04/17 09:34:41;;;;;;;1.50;1.37;;;23.40;40.10;;;;;;5032746;28;20410;-75
2022/04/17 09:37:16;;;;;;;1.10;1.10;;;23.90;40.00;;;;;;5032760;28;20398;-75
2022/04/17 09:39:43;;;;;;;1.20;1.20;;;24.20;39.40;;;;;;5033337;28;20482;-75
2022/04/17 09:42:10;;;;;;;2.13;1.17;;;24.10;38.70;;;;;;5032996;28;20426;-75
2022/04/17 09:45:01;;;;;;;1.63;1.53;;;24.20;38.70;;;;;;5033666;28;20491;-75
2022/04/17 09:47:28;;;;;;;1.50;1.40;;;24.10;38.60;;;;;;5011169;28;20871;-77
2022/04/17 09:50:08;;;;;;;1.17;1.17;;;23.60;37.70;;;;;;5011235;28;20476;-75
2022/04/17 09:52:40;;;;;;;1.10;1.00;;;23.50;38.40;;;;;;5011022;28;20436;-73
2022/04/17 09:55:07;;;;;;;1.10;1.10;;;23.40;38.20;;;;;;5010135;28;20432;-74
2022/04/17 09:57:35;;;;;;;0.93;0.93;;;23.10;37.80;;;;;;5010919;28;20381;-75
2022/04/17 10:00:06;;;;;;;1.17;1.07;;;23.00;39.00;;;;;;5011201;28;20447;-74
2022/04/17 10:02:33;;;;;;;1.10;1.10;;;23.30;39.80;;;;;;5010837;28;20397;-75
2022/04/17 10:05:00;;;;;;;1.40;1.30;;;23.80;38.40;;;;;;5010435;28;20491;-75
2022/04/17 10:07:27;;;;;;;1.07;1.07;;;24.20;38.10;;;;;;5010999;28;20563;-74
2022/04/17 10:09:53;;;;;;;1.30;1.30;;;24.20;38.10;;;;;;5010485;28;20415;-75
2022/04/17 10:12:20;;;;;;;1.40;1.30;;;24.50;37.50;;;;;;5010805;28;20440;-75
2022/04/17 10:14:51;;;;;;;1.30;1.20;;;24.50;37.60;;;;;;5010335;28;20511;-76
2022/04/17 10:17:20;;;;;;;1.57;1.40;;;24.30;36.90;;;;;;5011264;28;20721;-75
2022/04/17 10:19:50;;;;;;;1.60;1.50;;;24.00;37.30;;;;;;5010750;28;20396;-74
2022/04/17 10:22:21;;;;;;;1.60;1.50;;;23.70;38.00;;;;;;5011454;28;20385;-75
2022/04/17 10:24:54;;;;;;;1.37;1.27;;;23.50;37.20;;;;;;5024411;28;20427;-73
2022/04/17 10:27:44;;;;;;;1.57;1.47;;;23.30;37.90;;;;;;5032396;28;20423;-75
2022/04/17 10:30:21;;;;;;;1.30;1.20;;;23.20;37.90;;;;;;5033323;28;20471;-75
2022/04/17 10:33:30;;;;;;;0.93;0.93;;;23.00;37.70;;;;;;5032737;28;20907;-74
2022/04/17 10:36:04;;;;;;;1.03;1.03;;;22.90;38.50;;;;;;5033348;28;20704;-74
2022/04/17 10:38:45;;;;;;;1.33;1.23;;;22.80;38.70;;;;;;5032530;28;20424;-75
2022/04/17 10:41:15;;;;;;;1.27;1.17;;;22.60;39.00;;;;;;5032882;28;20410;-75
2022/04/17 10:43:46;;;;;;;1.33;1.03;;;22.40;39.10;;;;;;5032470;28;20386;-75
2022/04/17 10:46:17;;;;;;;1.20;1.20;;;22.60;38.70;;;;;;5033008;28;20431;-73
2022/04/17 10:48:44;;;;;;;2.70;1.20;;;22.30;39.30;;;;;;5035115;28;20440;-75
2022/04/17 10:51:30;;;;;;;1.33;1.33;;;22.50;39.60;;;;;;5036548;28;20422;-75
2022/04/17 10:54:06;;;;;;;1.70;1.60;;;22.70;40.20;;;;;;5045016;28;20429;-75
2022/04/17 10:56:34;;;;;;;1.30;1.13;;;22.50;39.70;;;;;;5042371;28;20506;-74
2022/04/17 10:59:02;;;;;;;1.03;1.00;;;21.90;39.80;;;;;;5035164;28;20406;-76
2022/04/17 11:01:43;;;;;;;1.50;1.30;;;21.70;39.70;;;;;;5035829;28;20388;-75
2022/04/17 11:04:31;;;;;;;1.33;1.23;;;21.60;40.10;;;;;;5035183;28;20428;-74
2022/04/17 11:07:06;;;;;;;1.33;1.23;;;21.10;39.90;;;;;;5035670;28;20479;-74
2022/04/17 11:09:42;;;;;;;1.13;1.13;;;20.60;40.20;;;;;;5034151;28;20447;-76
2022/04/17 11:12:17;;;;;;;1.30;1.20;;;20.00;41.50;;;;;;5035380;28;20429;-76
2022/04/17 11:14:54;;;;;;;1.43;1.33;;;19.20;41.90;;;;;;5035253;28;20788;-72
2022/04/17 11:17:23;;;;;;;1.30;1.30;;;18.30;42.20;;;;;;5034427;28;20914;-75
2022/04/17 11:19:54;;;;;;;1.23;1.23;;;17.50;42.30;;;;;;5035650;28;20401;-73
2022/04/17 11:22:26;;;;;;;1.10;1.10;;;17.00;43.40;;;;;;5035633;28;20414;-74
2022/04/17 11:24:55;;;;;;;1.43;1.03;;;16.60;43.50;;;;;;5034975;28;20468;-74
2022/04/17 11:27:52;;;;;;;1.20;1.10;;;16.20;43.70;;;;;;5035402;28;20475;-73
2022/04/17 11:30:17;;;;;;;1.17;1.17;;;15.80;44.70;;;;;;5035457;28;20451;-73
2022/04/17 11:32:43;;;;;;;1.20;1.10;;;15.60;45.10;;;;;;5035281;28;20452;-75
2022/04/17 11:35:14;;;;;;;0.77;0.77;;;15.50;46.00;;;;;;5035207;28;20210;-74
2022/04/17 11:37:48;;;;;;;1.23;1.23;;;15.50;46.60;;;;;;5035168;28;20169;-74
2022/04/17 11:40:16;;;;;;;1.17;1.07;;;15.60;46.60;;;;;;5035057;28;20763;-74
2022/04/17 11:42:45;;;;;;;0.93;0.93;;;15.60;46.50;;;;;;5035438;28;20839;-73
2022/04/17 11:45:13;;;;;;;1.53;1.13;;;15.60;45.60;;;;;;5034809;28;20411;-74
2022/04/17 11:47:41;;;;;;;0.97;0.97;;;15.60;46.60;;;;;;5034349;28;20423;-72
2022/04/17 11:50:09;;;;;;;1.80;1.70;;;15.70;47.00;;;;;;5035002;28;20767;-72
2022/04/17 11:52:35;;;;;;;1.13;1.00;;;15.90;46.60;;;;;;5034612;28;20456;-73
2022/04/17 11:55:01;;;;;;;0.90;0.90;;;15.90;46.40;;;;;;5034446;28;20467;-74
2022/04/17 11:57:27;;;;;;;1.00;1.00;;;15.90;46.20;;;;;;5034909;28;20402;-69
2022/04/17 11:59:54;;;;;;;1.60;1.30;;;16.00;46.00;;;;;;5034061;28;20409;-73
2022/04/17 12:02:29;;;;;;;1.40;1.30;;;15.90;45.60;;;;;;5034714;28;20174;-73
2022/04/17 12:04:57;;;;;;;0.80;0.80;;;15.90;46.40;;;;;;5034218;28;20783;-73
2022/04/17 12:07:26;;;;;;;0.83;0.83;;;15.90;45.70;;;;;;5034228;28;20985;-73
2022/04/17 12:10:09;;;;;;;1.33;1.03;;;15.90;46.10;;;;;;5034649;28;20401;-72
2022/04/17 12:12:41;;;;;;;1.30;1.20;;;15.90;45.00;;;;;;5033212;28;20479;-74
2022/04/17 12:15:09;;;;;;;1.10;1.00;;;15.80;44.70;;;;;;5034000;28;20505;-73
2022/04/17 12:17:37;;;;;;;1.00;1.00;;;15.70;45.30;;;;;;5034610;28;20811;-74
2022/04/17 12:20:14;;;;;;;0.97;0.93;;;15.70;46.40;;;;;;5034185;28;20395;-71
2022/04/17 12:22:40;;;;;;;1.10;0.90;;;15.70;46.50;;;;;;5034818;28;20407;-71
2022/04/17 12:25:24;;;;;;;1.00;0.90;;;15.70;46.70;;;;;;5033838;28;20471;-73
2022/04/17 12:27:51;;;;;;;1.67;1.03;;;15.60;46.80;;;;;;5032842;28;20851;-75
2022/04/17 12:30:25;;;;;;;1.73;1.00;;;15.60;46.80;;;;;;5034154;28;20432;-73
2022/04/17 12:32:59;;;;;;;1.13;1.13;;;15.50;44.50;;;;;;5032517;28;20468;-71
2022/04/17 12:35:26;;;;;;;0.90;0.90;;;15.50;45.10;;;;;;5033471;28;20443;-72
2022/04/17 12:38:10;;;;;;;1.00;1.00;;;15.40;44.50;;;;;;5033976;28;20413;-72
2022/04/17 12:40:43;;;;;;;1.07;0.93;;;15.30;46.10;;;;;;5033920;28;20732;-72
2022/04/17 12:43:13;;;;;;;1.20;0.80;;;15.40;47.60;;;;;;5033604;28;20436;-74
2022/04/17 12:45:53;;;;;;;0.80;0.80;;;15.50;47.30;;;;;;5033849;28;20433;-73
2022/04/17 12:48:34;;;;;;;0.60;0.60;;;15.60;45.40;;;;;;5033897;28;20411;-74
2022/04/17 12:51:05;;;;;;;3.53;1.93;;;15.60;44.30;;;;;;5032018;28;20395;-74
2022/04/17 12:53:42;;;;;;;1.63;1.53;;;15.60;43.30;;;;;;5033297;28;20409;-72
2022/04/17 12:56:11;;;;;;;1.10;1.10;;;15.50;44.20;;;;;;5033263;28;20436;-74
2022/04/17 12:58:54;;;;;;;1.00;1.00;;;15.50;44.50;;;;;;5033726;28;20761;-73
2022/04/17 13:01:24;;;;;;;0.87;0.87;;;15.50;44.10;;;;;;5033659;28;20405;-74
2022/04/17 13:03:50;;;;;;;1.40;1.10;;;15.50;44.20;;;;;;5033075;28;20460;-73
2022/04/17 13:06:21;;;;;;;0.90;0.90;;;15.60;45.00;;;;;;5033482;28;20516;-74
2022/04/17 13:09:05;;;;;;;0.90;0.90;;;15.60;44.30;;;;;;5033859;28;20382;-73